KFSM

Fort Smith Regional Airport

Fort Smith, Arkansas, USA
METAR KFSM 170253Z 00000KT 10SM CLR 11/08 A3030 RMK AO2 SLP261 T01060078 53009
Observed Flight Rules
Oct-17 @ 02:53 UTC (17 minutes ago) Visual Flight Rules
Visibility Clouds
10 miles
  • Clear skies
Temperatures Readings
Current 11°C / 52°F
Dewpoint 8°C / 46°F
Humidity 82%
Altimeter 30.3" Hg
Pressure 1026.1 hPa
Elevation 140
METAR KFSM 170253Z 00000KT 10SM CLR 11/08 A3030 RMK AO2 SLP261 T01060078 53009
Observed Flight Rules
Oct-17 @ 02:53 UTC
(17 minutes ago)
VFR
Clouds
  • Clear skies
Temperature Dewpoint
11°C / 52°F 8°C / 46°F
Humidity Altimeter Pressure
82% 30.3" Hg 1026.1 hPa